createdAt,value
2019-02-19T04:38:15.911Z,27.53
2019-02-19T08:54:47.213Z,19.35
2019-02-19T08:59:53.337Z,17.97
2019-02-19T09:04:50.269Z,17.17
2019-02-19T09:09:47.253Z,17.20
2019-02-19T09:17:33.856Z,18.00
2019-02-19T09:22:32.322Z,18.70
2019-02-19T09:27:29.473Z,16.67
2019-02-19T09:32:28.467Z,15.33
2019-02-19T09:37:28.739Z,15.20
2019-02-19T09:42:33.327Z,13.93
2019-02-19T09:47:37.858Z,14.03
2019-02-19T09:52:37.458Z,15.73
2019-02-19T09:57:34.547Z,13.60
2019-02-19T10:02:38.877Z,13.33
2019-02-19T10:07:35.034Z,12.60
2019-02-19T10:12:34.489Z,12.53
2019-02-19T10:17:31.504Z,10.97
2019-02-19T10:22:30.460Z,11.13
2019-02-19T10:27:29.327Z,11.43
2019-02-19T10:32:41.562Z,13.07
2019-02-19T10:37:39.048Z,13.33
2019-02-19T10:42:37.154Z,10.03
2019-02-19T10:47:35.856Z,11.77
2019-02-19T10:52:34.765Z,10.77
2019-02-19T10:57:31.825Z,11.97
2019-02-19T11:02:33.074Z,10.00
2019-02-19T11:07:33.360Z,11.73
2019-02-19T11:12:30.357Z,11.63
2019-02-19T11:18:03.708Z,11.63
2019-02-19T11:22:28.891Z,10.80
2019-02-19T11:27:28.178Z,10.50
2019-02-19T11:32:26.401Z,8.70
2019-02-19T11:37:26.180Z,11.10
2019-02-19T11:42:23.262Z,8.67
2019-02-19T11:47:26.660Z,11.20
2019-02-19T11:52:22.319Z,10.83
2019-02-19T11:57:21.464Z,9.37
2019-02-19T12:02:18.704Z,9.10
2019-02-19T12:07:20.283Z,11.87
2019-02-19T12:12:17.555Z,10.43
2019-02-19T12:17:14.953Z,8.53
2019-02-19T12:22:15.351Z,9.17
2019-02-19T12:27:14.289Z,9.77
2019-02-19T12:32:18.242Z,12.13
2019-02-19T12:37:18.233Z,10.03
2019-02-19T12:42:17.263Z,11.43
2019-02-19T12:47:16.866Z,9.93
2019-02-19T12:52:15.785Z,10.60
2019-02-19T12:57:14.680Z,12.13
2019-02-19T13:02:11.958Z,11.37
2019-02-19T13:07:11.782Z,11.90
2019-02-19T13:12:10.614Z,11.83
2019-02-19T13:17:37.732Z,12.03
2019-02-19T13:22:36.737Z,12.67
2019-02-19T13:27:35.236Z,10.63
2019-02-19T13:32:38.299Z,12.67
2019-02-19T13:37:33.202Z,14.13
2019-02-19T13:42:33.890Z,12.97
2019-02-19T13:47:35.071Z,14.40
2019-02-19T13:52:34.604Z,12.77
2019-02-19T13:57:31.800Z,17.73
2019-02-19T14:02:30.841Z,17.77
2019-02-19T14:07:30.413Z,14.57
2019-02-19T14:12:27.660Z,15.87
2019-02-19T14:17:26.545Z,12.30
2019-02-19T14:22:29.227Z,13.93
2019-02-19T14:27:28.029Z,13.10
2019-02-19T14:32:27.651Z,15.00
2019-02-19T14:37:26.448Z,16.50
2019-02-19T14:42:32.016Z,13.00
2019-02-19T14:47:34.170Z,13.47
2019-02-19T14:52:49.582Z,13.83
2019-02-19T14:57:55.759Z,13.33
2019-02-19T15:03:02.854Z,13.27
2019-02-19T15:08:18.928Z,11.53
2019-02-19T15:13:25.654Z,12.03
2019-02-19T15:18:34.759Z,11.97
2019-02-19T15:23:39.688Z,11.63
2019-02-19T15:28:49.051Z,14.57
2019-02-19T15:33:47.817Z,13.03
2019-02-19T15:38:49.149Z,14.70
2019-02-19T15:43:59.943Z,16.47
2019-02-19T15:49:01.779Z,15.70
2019-02-19T15:54:17.498Z,15.07
2019-02-19T15:59:19.430Z,16.80
2019-02-19T16:04:24.631Z,12.30
2019-02-19T16:09:30.752Z,14.43
2019-02-19T16:14:41.676Z,16.40
2019-02-19T16:19:40.535Z,16.17
2019-02-19T16:24:48.620Z,17.60
2019-02-19T16:29:50.477Z,17.20
2019-02-19T16:34:52.600Z,14.50
2019-02-19T16:39:54.560Z,14.00
2019-02-19T16:45:09.964Z,17.10
2019-02-19T16:50:22.796Z,13.90
2019-02-19T16:55:37.047Z,20.07
2019-02-19T17:00:50.775Z,17.10
2019-02-19T17:05:58.505Z,25.43
2019-02-19T17:10:57.290Z,22.07
2019-02-19T17:15:56.058Z,17.03
2019-02-19T17:21:08.109Z,16.30
2019-02-19T17:26:09.937Z,19.87
2019-02-19T17:31:16.126Z,18.27
2019-02-19T17:36:18.471Z,18.97
2019-02-19T17:41:20.650Z,20.13
2019-02-19T17:46:26.922Z,33.93
2019-02-19T17:51:28.606Z,21.27
2019-02-19T17:56:33.220Z,18.43
2019-02-19T18:01:39.157Z,20.10
2019-02-19T18:06:47.253Z,17.20
2019-02-19T18:11:55.139Z,19.10
2019-02-19T18:16:58.373Z,21.63
2019-02-19T18:21:58.165Z,19.17
2019-02-19T18:26:55.255Z,19.93
2019-02-19T18:31:52.450Z,22.70
2019-02-19T18:36:49.444Z,19.50
2019-02-19T18:41:46.502Z,26.17
2019-02-19T18:46:43.544Z,24.50
2019-02-19T18:51:40.586Z,21.20
2019-02-19T18:56:37.574Z,20.73
2019-02-19T19:01:34.503Z,20.10
2019-02-19T19:06:31.504Z,21.60
2019-02-19T19:11:28.626Z,24.60
2019-02-19T19:16:25.648Z,24.27
2019-02-19T19:21:23.211Z,23.90
2019-02-19T19:26:30.938Z,23.17
2019-02-19T19:31:33.563Z,22.53
2019-02-19T19:36:26.817Z,22.50
2019-02-19T19:41:24.609Z,25.83
2019-02-19T19:46:21.829Z,24.20
2019-02-19T19:51:18.888Z,24.43
2019-02-19T19:56:17.129Z,26.30
2019-02-19T20:01:15.864Z,23.53
2019-02-19T20:06:13.091Z,26.03
2019-02-19T20:11:10.243Z,26.33
2019-02-19T20:16:07.380Z,23.50
2019-02-19T20:21:05.098Z,26.10
2019-02-19T20:26:02.495Z,22.83
2019-02-19T20:30:59.630Z,23.77
2019-02-19T20:35:56.735Z,21.43
2019-02-19T20:40:53.805Z,22.80
2019-02-19T20:45:51.312Z,24.67
2019-02-19T20:50:48.255Z,26.97
2019-02-19T20:55:45.262Z,24.07
2019-02-19T21:00:42.311Z,22.97
2019-02-19T21:05:39.309Z,26.07
2019-02-19T21:10:36.327Z,25.23
2019-02-19T21:15:33.483Z,26.80
2019-02-19T21:20:30.448Z,32.77
2019-02-19T21:25:30.993Z,30.00
2019-02-19T21:30:27.158Z,29.70
2019-02-19T21:35:25.176Z,30.00
2019-02-19T21:40:23.980Z,25.07
2019-02-19T21:45:21.070Z,27.37
2019-02-19T21:50:18.159Z,27.17
2019-02-19T21:55:15.212Z,27.10
2019-02-19T22:00:19.866Z,30.80
2019-02-19T22:05:16.931Z,30.93
2019-02-19T22:10:14.210Z,33.37
2019-02-19T22:15:12.935Z,32.60
2019-02-19T22:20:21.368Z,26.83
2019-02-19T22:25:18.342Z,25.77
2019-02-19T22:30:15.440Z,26.43
2019-02-19T22:35:12.419Z,28.77
2019-02-19T22:40:09.544Z,28.83
2019-02-19T22:45:08.852Z,27.80
2019-02-19T22:50:08.243Z,26.37
2019-02-19T22:55:09.874Z,27.37
2019-02-19T23:00:33.970Z,26.77
2019-02-19T23:05:30.915Z,26.43
2019-02-19T23:10:27.961Z,26.03
2019-02-19T23:15:25.000Z,25.33
2019-02-19T23:20:22.050Z,27.33
2019-02-19T23:25:19.044Z,27.63
2019-02-19T23:30:16.131Z,29.87
2019-02-19T23:35:22.066Z,25.87
2019-02-19T23:40:20.405Z,26.97
2019-02-19T23:45:17.472Z,24.23
2019-02-19T23:50:14.601Z,26.27
2019-02-19T23:55:11.697Z,31.77
